sensor_id;sensor_type;location;lat;lon;timestamp;pressure;altitude;pressure_sealevel;temperature;humidity
66381;BME280;53177;52.648;1.214;2023-04-30T00:00:45;101858.84;;;9.10;86.17
66381;BME280;53177;52.648;1.214;2023-04-30T00:03:10;101859.66;;;8.91;87.58
66381;BME280;53177;52.648;1.214;2023-04-30T00:05:36;101863.22;;;9.00;86.93
66381;BME280;53177;52.648;1.214;2023-04-30T00:08:03;101860.63;;;9.12;86.22
66381;BME280;53177;52.648;1.214;2023-04-30T00:10:29;101862.34;;;9.07;86.55
66381;BME280;53177;52.648;1.214;2023-04-30T00:12:54;101858.81;;;8.99;87.06
66381;BME280;53177;52.648;1.214;2023-04-30T00:15:21;101856.16;;;8.95;87.33
66381;BME280;53177;52.648;1.214;2023-04-30T00:17:47;101861.41;;;8.84;87.74
66381;BME280;53177;52.648;1.214;2023-04-30T00:20:12;101856.19;;;8.90;87.72
66381;BME280;53177;52.648;1.214;2023-04-30T00:22:37;101860.56;;;8.99;87.14
66381;BME280;53177;52.648;1.214;2023-04-30T00:25:03;101865.81;;;8.85;88.18
66381;BME280;53177;52.648;1.214;2023-04-30T00:27:28;101860.53;;;8.82;88.02
66381;BME280;53177;52.648;1.214;2023-04-30T00:29:55;101864.94;;;8.82;87.83
66381;BME280;53177;52.648;1.214;2023-04-30T00:32:21;101864.06;;;8.87;87.55
66381;BME280;53177;52.648;1.214;2023-04-30T00:34:46;101850.88;;;8.86;87.69
66381;BME280;53177;52.648;1.214;2023-04-30T00:37:12;101856.16;;;8.83;87.88
66381;BME280;53177;52.648;1.214;2023-04-30T00:39:37;101856.09;;;8.70;89.03
66381;BME280;53177;52.648;1.214;2023-04-30T00:42:02;101853.50;;;8.75;88.77
66381;BME280;53177;52.648;1.214;2023-04-30T00:44:28;101856.97;;;8.60;89.75
66381;BME280;53177;52.648;1.214;2023-04-30T00:46:53;101859.59;;;8.66;89.49
66381;BME280;53177;52.648;1.214;2023-04-30T00:49:19;101857.00;;;8.71;89.15
66381;BME280;53177;52.648;1.214;2023-04-30T00:51:45;101854.31;;;8.56;90.46
66381;BME280;53177;52.648;1.214;2023-04-30T00:54:10;101854.28;;;8.50;90.42
66381;BME280;53177;52.648;1.214;2023-04-30T00:56:36;101851.66;;;8.54;90.22
66381;BME280;53177;52.648;1.214;2023-04-30T00:59:02;101853.44;;;8.60;90.59
66381;BME280;53177;52.648;1.214;2023-04-30T01:01:28;101846.44;;;8.69;89.58
66381;BME280;53177;52.648;1.214;2023-04-30T01:03:53;101841.19;;;8.74;89.23
66381;BME280;53177;52.648;1.214;2023-04-30T01:06:19;101842.94;;;8.72;89.56
66381;BME280;53177;52.648;1.214;2023-04-30T01:08:44;101843.78;;;8.69;89.63
66381;BME280;53177;52.648;1.214;2023-04-30T01:13:52;101843.81;;;8.71;89.05
66381;BME280;53177;52.648;1.214;2023-04-30T01:16:26;101845.59;;;8.72;88.91
66381;BME280;53177;52.648;1.214;2023-04-30T01:19:09;101842.03;;;8.67;89.34
66381;BME280;53177;52.648;1.214;2023-04-30T01:21:42;101848.19;;;8.66;89.67
66381;BME280;53177;52.648;1.214;2023-04-30T01:29:39;101851.66;;;8.54;89.99
66381;BME280;53177;52.648;1.214;2023-04-30T01:32:06;101841.97;;;8.52;89.83
66381;BME280;53177;52.648;1.214;2023-04-30T01:34:31;101842.00;;;8.53;89.92
66381;BME280;53177;52.648;1.214;2023-04-30T01:40:09;101841.00;;;8.31;90.96
66381;BME280;53177;52.648;1.214;2023-04-30T01:45:39;101851.34;;;8.00;92.75
66381;BME280;53177;52.648;1.214;2023-04-30T01:48:30;101849.63;;;8.02;92.65
66381;BME280;53177;52.648;1.214;2023-04-30T01:51:20;101847.03;;;8.11;91.90
66381;BME280;53177;52.648;1.214;2023-04-30T01:53:46;101849.63;;;8.05;92.28
66381;BME280;53177;52.648;1.214;2023-04-30T01:56:26;101857.59;;;8.18;91.47
66381;BME280;53177;52.648;1.214;2023-04-30T01:58:52;101857.63;;;8.24;91.16
66381;BME280;53177;52.648;1.214;2023-04-30T02:03:51;101849.69;;;8.17;90.57
66381;BME280;53177;52.648;1.214;2023-04-30T02:06:16;101855.72;;;7.99;92.20
66381;BME280;53177;52.648;1.214;2023-04-30T02:08:42;101846.16;;;8.13;91.28
66381;BME280;53177;52.648;1.214;2023-04-30T02:11:07;101850.50;;;8.07;91.01
66381;BME280;53177;52.648;1.214;2023-04-30T02:13:32;101841.78;;;8.17;90.91
66381;BME280;53177;52.648;1.214;2023-04-30T02:15:58;101840.06;;;8.23;90.77
66381;BME280;53177;52.648;1.214;2023-04-30T02:18:23;101848.75;;;8.07;91.31
66381;BME280;53177;52.648;1.214;2023-04-30T02:20:48;101847.00;;;8.09;91.15
66381;BME280;53177;52.648;1.214;2023-04-30T02:23:14;101846.22;;;8.25;90.31
66381;BME280;53177;52.648;1.214;2023-04-30T02:25:40;101846.16;;;8.13;90.55
66381;BME280;53177;52.648;1.214;2023-04-30T02:28:05;101850.53;;;8.11;90.58
66381;BME280;53177;52.648;1.214;2023-04-30T02:30:31;101840.03;;;8.16;90.70
66381;BME280;53177;52.648;1.214;2023-04-30T02:32:56;101840.91;;;8.21;90.48
66381;BME280;53177;52.648;1.214;2023-04-30T02:35:22;101841.81;;;8.21;90.66
66381;BME280;53177;52.648;1.214;2023-04-30T02:37:47;101838.19;;;8.00;90.69
66381;BME280;53177;52.648;1.214;2023-04-30T02:40:12;101833.78;;;7.97;91.68
66381;BME280;53177;52.648;1.214;2023-04-30T02:42:38;101843.53;;;8.09;90.84
66381;BME280;53177;52.648;1.214;2023-04-30T02:45:04;101834.75;;;8.11;90.70
66381;BME280;53177;52.648;1.214;2023-04-30T02:47:29;101850.56;;;8.13;90.23
66381;BME280;53177;52.648;1.214;2023-04-30T02:49:55;101839.94;;;8.02;90.75
66381;BME280;53177;52.648;1.214;2023-04-30T02:52:20;101845.13;;;7.89;90.71
66381;BME280;53177;52.648;1.214;2023-04-30T02:54:45;101839.03;;;7.94;90.35
66381;BME280;53177;52.648;1.214;2023-04-30T02:57:11;101841.72;;;8.03;90.46
66381;BME280;53177;52.648;1.214;2023-04-30T02:59:36;101834.66;;;7.98;90.58
66381;BME280;53177;52.648;1.214;2023-04-30T03:02:03;101832.94;;;8.04;90.50
66381;BME280;53177;52.648;1.214;2023-04-30T03:04:28;101826.72;;;7.90;90.43
66381;BME280;53177;52.648;1.214;2023-04-30T03:06:53;101840.63;;;7.69;91.82
66381;BME280;53177;52.648;1.214;2023-04-30T03:09:19;101846.00;;;7.83;90.89
66381;BME280;53177;52.648;1.214;2023-04-30T03:11:44;101851.09;;;7.62;91.52
66381;BME280;53177;52.648;1.214;2023-04-30T03:14:09;101848.47;;;7.63;91.73
66381;BME280;53177;52.648;1.214;2023-04-30T03:16:35;101844.03;;;7.53;91.73
66381;BME280;53177;52.648;1.214;2023-04-30T03:19:00;101842.19;;;7.45;92.81
66381;BME280;53177;52.648;1.214;2023-04-30T03:21:26;101840.44;;;7.47;92.27
66381;BME280;53177;52.648;1.214;2023-04-30T03:23:51;101830.06;;;7.65;91.78
66381;BME280;53177;52.648;1.214;2023-04-30T03:26:16;101834.44;;;7.63;90.76
66381;BME280;53177;52.648;1.214;2023-04-30T03:28:42;101837.91;;;7.57;91.50
66381;BME280;53177;52.648;1.214;2023-04-30T03:31:07;101833.50;;;7.53;92.10
66381;BME280;53177;52.648;1.214;2023-04-30T03:33:32;101831.69;;;7.51;92.40
66381;BME280;53177;52.648;1.214;2023-04-30T03:35:58;101823.88;;;7.60;91.97
66381;BME280;53177;52.648;1.214;2023-04-30T03:38:24;101829.22;;;7.70;91.56
66381;BME280;53177;52.648;1.214;2023-04-30T03:40:50;101835.22;;;7.54;92.06
66381;BME280;53177;52.648;1.214;2023-04-30T03:43:15;101837.91;;;7.57;92.19
66381;BME280;53177;52.648;1.214;2023-04-30T03:45:40;101823.03;;;7.62;91.75
66381;BME280;53177;52.648;1.214;2023-04-30T03:48:06;101825.50;;;7.44;91.93
66381;BME280;53177;52.648;1.214;2023-04-30T03:50:31;101829.09;;;7.55;91.53
66381;BME280;53177;52.648;1.214;2023-04-30T03:52:57;101823.91;;;7.63;91.44
66381;BME280;53177;52.648;1.214;2023-04-30T03:55:24;101830.03;;;7.62;91.43
66381;BME280;53177;52.648;1.214;2023-04-30T03:57:53;101836.94;;;7.45;91.93
66381;BME280;53177;52.648;1.214;2023-04-30T04:00:22;101835.09;;;7.39;92.05
66381;BME280;53177;52.648;1.214;2023-04-30T04:02:51;101842.16;;;7.43;91.80
66381;BME280;53177;52.648;1.214;2023-04-30T04:05:22;101830.53;;;7.17;92.93
66381;BME280;53177;52.648;1.214;2023-04-30T04:07:49;101837.53;;;7.15;93.24
66381;BME280;53177;52.648;1.214;2023-04-30T04:10:17;101835.81;;;7.18;92.45
66381;BME280;53177;52.648;1.214;2023-04-30T04:12:55;101841.16;;;7.26;92.98
66381;BME280;53177;52.648;1.214;2023-04-30T04:15:22;101834.28;;;7.43;92.04
66381;BME280;53177;52.648;1.214;2023-04-30T04:17:48;101846.63;;;7.52;91.36
66381;BME280;53177;52.648;1.214;2023-04-30T04:20:13;101850.13;;;7.51;90.81
66381;BME280;53177;52.648;1.214;2023-04-30T04:22:39;101848.31;;;7.42;91.09
66381;BME280;53177;52.648;1.214;2023-04-30T04:25:06;101836.88;;;7.40;90.93
66381;BME280;53177;52.648;1.214;2023-04-30T04:27:38;101844.75;;;7.37;91.27
66381;BME280;53177;52.648;1.214;2023-04-30T04:30:05;101838.59;;;7.33;90.30
66381;BME280;53177;52.648;1.214;2023-04-30T04:32:31;101840.22;;;7.21;91.23
66381;BME280;53177;52.648;1.214;2023-04-30T04:34:57;101834.94;;;7.16;91.55
66381;BME280;53177;52.648;1.214;2023-04-30T04:37:22;101840.84;;;6.93;92.76
66381;BME280;53177;52.648;1.214;2023-04-30T04:39:48;101844.28;;;6.87;93.69
66381;BME280;53177;52.648;1.214;2023-04-30T04:42:14;101847.75;;;6.84;93.79
66381;BME280;53177;52.648;1.214;2023-04-30T04:44:41;101842.59;;;6.94;93.57
66381;BME280;53177;52.648;1.214;2023-04-30T04:47:07;101842.47;;;6.81;94.29
66381;BME280;53177;52.648;1.214;2023-04-30T04:49:32;101840.81;;;6.90;93.10
66381;BME280;53177;52.648;1.214;2023-04-30T04:51:58;101840.91;;;7.00;92.85
66381;BME280;53177;52.648;1.214;2023-04-30T04:54:23;101840.88;;;6.99;92.43
66381;BME280;53177;52.648;1.214;2023-04-30T04:56:49;101840.03;;;7.00;93.01
66381;BME280;53177;52.648;1.214;2023-04-30T04:59:16;101836.44;;;6.90;93.11
66381;BME280;53177;52.648;1.214;2023-04-30T05:01:42;101839.88;;;6.84;94.67
66381;BME280;53177;52.648;1.214;2023-04-30T05:04:07;101838.81;;;6.67;95.96
66381;BME280;53177;52.648;1.214;2023-04-30T05:06:33;101833.34;;;6.51;97.01
66381;BME280;53177;52.648;1.214;2023-04-30T05:08:59;101841.34;;;6.60;96.49
66381;BME280;53177;52.648;1.214;2023-04-30T05:11:24;101832.69;;;6.70;95.51
66381;BME280;53177;52.648;1.214;2023-04-30T05:13:50;101838.91;;;6.75;95.62
66381;BME280;53177;52.648;1.214;2023-04-30T05:16:15;101836.28;;;6.78;95.52
66381;BME280;53177;52.648;1.214;2023-04-30T05:18:41;101838.06;;;6.80;95.25
66381;BME280;53177;52.648;1.214;2023-04-30T05:21:06;101839.03;;;6.87;95.41
66381;BME280;53177;52.648;1.214;2023-04-30T05:23:32;101833.84;;;6.95;94.51
66381;BME280;53177;52.648;1.214;2023-04-30T05:25:57;101826.94;;;7.04;94.23
66381;BME280;53177;52.648;1.214;2023-04-30T05:28:22;101839.16;;;7.01;94.93
66381;BME280;53177;52.648;1.214;2023-04-30T05:30:48;101839.19;;;7.04;94.38
66381;BME280;53177;52.648;1.214;2023-04-30T05:33:13;101835.72;;;7.08;94.93
66381;BME280;53177;52.648;1.214;2023-04-30T05:35:39;101826.97;;;7.10;94.98
66381;BME280;53177;52.648;1.214;2023-04-30T05:38:04;101826.22;;;7.23;94.58
66381;BME280;53177;52.648;1.214;2023-04-30T05:40:31;101822.69;;;7.21;94.48
66381;BME280;53177;52.648;1.214;2023-04-30T05:42:56;101821.03;;;7.32;94.23
66381;BME280;53177;52.648;1.214;2023-04-30T05:45:22;101820.19;;;7.35;94.84
66381;BME280;53177;52.648;1.214;2023-04-30T05:47:47;101827.19;;;7.36;94.51
66381;BME280;53177;52.648;1.214;2023-04-30T05:50:13;101828.16;;;7.43;95.23
66381;BME280;53177;52.648;1.214;2023-04-30T05:52:38;101827.31;;;7.50;95.34
66381;BME280;53177;52.648;1.214;2023-04-30T05:55:04;101822.09;;;7.56;95.16
66381;BME280;53177;52.648;1.214;2023-04-30T05:57:30;101825.63;;;7.59;94.80
66381;BME280;53177;52.648;1.214;2023-04-30T05:59:55;101830.03;;;7.62;94.72
66381;BME280;53177;52.648;1.214;2023-04-30T06:02:21;101831.84;;;7.67;95.37
66381;BME280;53177;52.648;1.214;2023-04-30T06:04:47;101839.78;;;7.72;95.29
66381;BME280;53177;52.648;1.214;2023-04-30T06:07:12;101838.94;;;7.79;96.12
66381;BME280;53177;52.648;1.214;2023-04-30T06:09:37;101845.13;;;7.87;95.56
66381;BME280;53177;52.648;1.214;2023-04-30T06:12:03;101839.03;;;7.94;95.80
66381;BME280;53177;52.648;1.214;2023-04-30T06:14:29;101838.19;;;8.00;95.47
66381;BME280;53177;52.648;1.214;2023-04-30T06:16:54;101833.81;;;8.06;95.65
66381;BME280;53177;52.648;1.214;2023-04-30T06:19:19;101840.88;;;8.10;95.62
66381;BME280;53177;52.648;1.214;2023-04-30T06:21:45;101839.16;;;8.15;95.45
66381;BME280;53177;52.648;1.214;2023-04-30T06:24:10;101833.91;;;8.20;95.07
66381;BME280;53177;52.648;1.214;2023-04-30T06:26:36;101823.41;;;8.27;94.85
66381;BME280;53177;52.648;1.214;2023-04-30T06:29:01;101828.72;;;8.32;94.75
66381;BME280;53177;52.648;1.214;2023-04-30T06:31:26;101819.09;;;8.37;94.49
66381;BME280;53177;52.648;1.214;2023-04-30T06:33:52;101822.63;;;8.48;94.79
66381;BME280;53177;52.648;1.214;2023-04-30T06:36:17;101820.06;;;8.60;95.01
66381;BME280;53177;52.648;1.214;2023-04-30T06:38:44;101823.56;;;8.65;94.14
66381;BME280;53177;52.648;1.214;2023-04-30T06:41:11;101821.81;;;8.66;93.06
66381;BME280;53177;52.648;1.214;2023-04-30T06:43:36;101820.94;;;8.73;93.08
66381;BME280;53177;52.648;1.214;2023-04-30T06:46:02;101830.66;;;8.82;92.89
66381;BME280;53177;52.648;1.214;2023-04-30T06:48:28;101830.66;;;8.86;91.81
66381;BME280;53177;52.648;1.214;2023-04-30T06:50:53;101829.78;;;8.92;91.69
66381;BME280;53177;52.648;1.214;2023-04-30T06:53:18;101834.19;;;8.96;89.97
66381;BME280;53177;52.648;1.214;2023-04-30T06:55:44;101824.53;;;9.08;90.86
66381;BME280;53177;52.648;1.214;2023-04-30T06:58:13;101825.44;;;9.15;91.34
66381;BME280;53177;52.648;1.214;2023-04-30T07:00:38;101822.78;;;9.21;90.59
66381;BME280;53177;52.648;1.214;2023-04-30T07:03:03;101825.41;;;9.32;90.83
66381;BME280;53177;52.648;1.214;2023-04-30T07:05:29;101829.81;;;9.39;89.55
66381;BME280;53177;52.648;1.214;2023-04-30T07:07:56;101825.44;;;9.42;87.79
66381;BME280;53177;52.648;1.214;2023-04-30T07:10:21;101826.28;;;9.50;87.01
66381;BME280;53177;52.648;1.214;2023-04-30T07:12:47;101827.19;;;9.63;87.04
66381;BME280;53177;52.648;1.214;2023-04-30T07:15:12;101825.41;;;9.69;85.45
66381;BME280;53177;52.648;1.214;2023-04-30T07:17:37;101828.91;;;9.77;85.80
66381;BME280;53177;52.648;1.214;2023-04-30T07:20:04;101831.56;;;9.85;85.23
66381;BME280;53177;52.648;1.214;2023-04-30T07:22:30;101837.72;;;9.90;85.00
66381;BME280;53177;52.648;1.214;2023-04-30T07:24:56;101832.41;;;9.93;83.92
66381;BME280;53177;52.648;1.214;2023-04-30T07:27:21;101830.66;;;9.97;83.75
66381;BME280;53177;52.648;1.214;2023-04-30T07:29:47;101832.41;;;9.96;83.54
66381;BME280;53177;52.648;1.214;2023-04-30T07:32:12;101831.50;;;9.99;82.97
66381;BME280;53177;52.648;1.214;2023-04-30T07:34:39;101838.53;;;10.06;82.65
66381;BME280;53177;52.648;1.214;2023-04-30T07:37:04;101840.31;;;10.17;84.15
66381;BME280;53177;52.648;1.214;2023-04-30T07:39:30;101843.81;;;10.25;83.59
66381;BME280;53177;52.648;1.214;2023-04-30T07:41:55;101841.13;;;10.38;83.43
66381;BME280;53177;52.648;1.214;2023-04-30T07:44:20;101842.84;;;10.46;83.54
66381;BME280;53177;52.648;1.214;2023-04-30T07:46:46;101843.72;;;10.44;82.87
66381;BME280;53177;52.648;1.214;2023-04-30T07:49:11;101845.47;;;10.52;82.85
66381;BME280;53177;52.648;1.214;2023-04-30T07:51:37;101842.78;;;10.58;82.57
66381;BME280;53177;52.648;1.214;2023-04-30T07:54:03;101844.53;;;10.67;82.82
66381;BME280;53177;52.648;1.214;2023-04-30T07:56:29;101842.75;;;10.70;82.03
66381;BME280;53177;52.648;1.214;2023-04-30T07:58:54;101836.47;;;10.84;81.52
66381;BME280;53177;52.648;1.214;2023-04-30T08:01:20;101844.41;;;10.88;80.06
66381;BME280;53177;52.648;1.214;2023-04-30T08:03:45;101840.84;;;10.92;79.40
66381;BME280;53177;52.648;1.214;2023-04-30T08:06:11;101840.78;;;11.00;79.23
66381;BME280;53177;52.648;1.214;2023-04-30T08:08:36;101840.84;;;10.91;79.90
66381;BME280;53177;52.648;1.214;2023-04-30T08:11:02;101838.19;;;10.94;80.30
66381;BME280;53177;52.648;1.214;2023-04-30T08:13:27;101827.56;;;11.00;80.03
66381;BME280;53177;52.648;1.214;2023-04-30T08:15:53;101827.47;;;11.10;79.40
66381;BME280;53177;52.648;1.214;2023-04-30T08:18:18;101826.50;;;11.25;79.80
66381;BME280;53177;52.648;1.214;2023-04-30T08:20:43;101824.66;;;11.32;78.44
66381;BME280;53177;52.648;1.214;2023-04-30T08:23:09;101815.78;;;11.42;78.98
66381;BME280;53177;52.648;1.214;2023-04-30T08:25:34;101816.56;;;11.53;78.05
66381;BME280;53177;52.648;1.214;2023-04-30T08:28:01;101818.22;;;11.61;78.49
66381;BME280;53177;52.648;1.214;2023-04-30T08:30:26;101816.44;;;11.65;78.27
66381;BME280;53177;52.648;1.214;2023-04-30T08:32:52;101827.00;;;11.74;79.09
66381;BME280;53177;52.648;1.214;2023-04-30T08:35:17;101820.69;;;11.84;78.13
66381;BME280;53177;52.648;1.214;2023-04-30T08:37:43;101810.91;;;11.92;78.28
66381;BME280;53177;52.648;1.214;2023-04-30T08:40:09;101822.31;;;12.00;78.69
66381;BME280;53177;52.648;1.214;2023-04-30T08:42:37;101814.25;;;12.06;78.90
66381;BME280;53177;52.648;1.214;2023-04-30T08:45:07;101811.56;;;12.09;78.64
66381;BME280;53177;52.648;1.214;2023-04-30T08:47:36;101810.56;;;12.21;78.46
66381;BME280;53177;52.648;1.214;2023-04-30T08:50:02;101808.59;;;12.35;78.19
66381;BME280;53177;52.648;1.214;2023-04-30T08:52:28;101807.53;;;12.51;77.19
66381;BME280;53177;52.648;1.214;2023-04-30T08:54:56;101814.44;;;12.63;77.05
66381;BME280;53177;52.648;1.214;2023-04-30T08:57:22;101813.47;;;12.70;77.44
66381;BME280;53177;52.648;1.214;2023-04-30T08:59:48;101815.09;;;12.80;76.17
66381;BME280;53177;52.648;1.214;2023-04-30T09:02:13;101809.63;;;12.91;76.34
66381;BME280;53177;52.648;1.214;2023-04-30T09:04:39;101820.16;;;12.97;75.79
66381;BME280;53177;52.648;1.214;2023-04-30T09:07:05;101813.84;;;13.04;75.10
66381;BME280;53177;52.648;1.214;2023-04-30T09:09:37;101808.41;;;13.14;74.53
66381;BME280;53177;52.648;1.214;2023-04-30T09:12:16;101821.63;;;13.19;75.43
66381;BME280;53177;52.648;1.214;2023-04-30T09:15:00;101806.22;;;13.39;74.42
66381;BME280;53177;52.648;1.214;2023-04-30T09:17:26;101810.72;;;13.36;72.68
66381;BME280;53177;52.648;1.214;2023-04-30T09:19:52;101808.81;;;13.42;73.10
66381;BME280;53177;52.648;1.214;2023-04-30T09:22:22;101806.81;;;13.56;73.33
66381;BME280;53177;52.648;1.214;2023-04-30T09:24:49;101802.78;;;13.83;73.00
66381;BME280;53177;52.648;1.214;2023-04-30T09:27:17;101804.69;;;14.23;70.73
66381;BME280;53177;52.648;1.214;2023-04-30T09:29:43;101799.69;;;14.49;70.65
66381;BME280;53177;52.648;1.214;2023-04-30T09:32:11;101804.03;;;14.93;69.11
66381;BME280;53177;52.648;1.214;2023-04-30T09:34:39;101798.03;;;15.22;67.22
66381;BME280;53177;52.648;1.214;2023-04-30T09:37:07;101803.09;;;15.31;66.66
66381;BME280;53177;52.648;1.214;2023-04-30T09:39:45;101795.81;;;15.37;66.95
66381;BME280;53177;52.648;1.214;2023-04-30T09:42:12;101791.53;;;15.33;67.70
66381;BME280;53177;52.648;1.214;2023-04-30T09:44:39;101786.34;;;15.63;66.63
66381;BME280;53177;52.648;1.214;2023-04-30T09:47:19;101784.28;;;15.74;65.34
66381;BME280;53177;52.648;1.214;2023-04-30T09:49:49;101780.91;;;15.98;64.88
66381;BME280;53177;52.648;1.214;2023-04-30T09:52:18;101779.78;;;16.06;66.00
66381;BME280;53177;52.648;1.214;2023-04-30T09:54:44;101773.78;;;15.98;62.52
66381;BME280;53177;52.648;1.214;2023-04-30T09:57:12;101785.47;;;15.94;63.83
66381;BME280;53177;52.648;1.214;2023-04-30T09:59:44;101788.72;;;16.04;63.73
66381;BME280;53177;52.648;1.214;2023-04-30T10:02:12;101779.66;;;15.79;63.54
66381;BME280;53177;52.648;1.214;2023-04-30T10:04:42;101766.88;;;15.91;65.60
66381;BME280;53177;52.648;1.214;2023-04-30T10:07:12;101770.84;;;16.07;63.61
66381;BME280;53177;52.648;1.214;2023-04-30T10:09:40;101773.22;;;16.18;63.48
66381;BME280;53177;52.648;1.214;2023-04-30T10:12:22;101774.66;;;15.99;62.30
66381;BME280;53177;52.648;1.214;2023-04-30T10:14:55;101767.91;;;16.18;62.38
66381;BME280;53177;52.648;1.214;2023-04-30T10:17:26;101763.19;;;16.57;63.32
66381;BME280;53177;52.648;1.214;2023-04-30T10:19:56;101767.47;;;16.63;60.99
66381;BME280;53177;52.648;1.214;2023-04-30T10:22:23;101769.47;;;16.84;61.02
66381;BME280;53177;52.648;1.214;2023-04-30T10:24:49;101755.03;;;16.62;61.13
66381;BME280;53177;52.648;1.214;2023-04-30T10:27:16;101763.22;;;16.85;59.66
66381;BME280;53177;52.648;1.214;2023-04-30T10:29:42;101753.00;;;16.70;60.10
66381;BME280;53177;52.648;1.214;2023-04-30T10:32:10;101757.41;;;16.71;61.48
66381;BME280;53177;52.648;1.214;2023-04-30T10:34:56;101756.88;;;16.87;60.75
66381;BME280;53177;52.648;1.214;2023-04-30T10:37:30;101745.59;;;16.78;59.80
66381;BME280;53177;52.648;1.214;2023-04-30T10:39:58;101748.38;;;16.75;59.16
66381;BME280;53177;52.648;1.214;2023-04-30T10:42:26;101744.66;;;16.80;60.44
66381;BME280;53177;52.648;1.214;2023-04-30T10:44:51;101742.91;;;17.06;60.30
66381;BME280;53177;52.648;1.214;2023-04-30T10:47:17;101741.94;;;17.34;60.37
66381;BME280;53177;52.648;1.214;2023-04-30T10:49:48;101738.56;;;17.54;58.76
66381;BME280;53177;52.648;1.214;2023-04-30T10:52:25;101734.53;;;17.42;58.44
66381;BME280;53177;52.648;1.214;2023-04-30T10:54:51;101737.97;;;17.72;58.78
66381;BME280;53177;52.648;1.214;2023-04-30T10:57:17;101740.50;;;17.24;60.26
66381;BME280;53177;52.648;1.214;2023-04-30T10:59:52;101736.69;;;17.31;58.56
66381;BME280;53177;52.648;1.214;2023-04-30T11:02:39;101729.91;;;17.47;56.54
66381;BME280;53177;52.648;1.214;2023-04-30T11:07:32;101718.56;;;16.88;58.60
66381;BME280;53177;52.648;1.214;2023-04-30T11:09:59;101718.88;;;17.06;58.07
66381;BME280;53177;52.648;1.214;2023-04-30T11:12:26;101713.16;;;16.90;58.68
66381;BME280;53177;52.648;1.214;2023-04-30T11:15:06;101716.56;;;17.46;59.87
66381;BME280;53177;52.648;1.214;2023-04-30T11:17:36;101709.81;;;17.85;59.01
66381;BME280;53177;52.648;1.214;2023-04-30T11:20:03;101706.66;;;17.74;56.95
66381;BME280;53177;52.648;1.214;2023-04-30T11:22:28;101709.88;;;17.84;58.02
66381;BME280;53177;52.648;1.214;2023-04-30T11:25:03;101707.66;;;17.72;57.68
66381;BME280;53177;52.648;1.214;2023-04-30T11:27:35;101705.97;;;17.69;56.95
66381;BME280;53177;52.648;1.214;2023-04-30T11:30:02;101698.38;;;17.57;58.08
66381;BME280;53177;52.648;1.214;2023-04-30T11:32:33;101694.91;;;17.78;56.12
66381;BME280;53177;52.648;1.214;2023-04-30T11:35:03;101687.75;;;17.79;56.47
66381;BME280;53177;52.648;1.214;2023-04-30T11:39:56;101688.88;;;17.73;55.21
66381;BME280;53177;52.648;1.214;2023-04-30T11:42:21;101685.00;;;17.56;56.05
66381;BME280;53177;52.648;1.214;2023-04-30T11:44:47;101693.31;;;17.48;56.33
66381;BME280;53177;52.648;1.214;2023-04-30T11:47:13;101689.06;;;17.92;57.12
66381;BME280;53177;52.648;1.214;2023-04-30T11:49:39;101683.94;;;18.09;54.84
66381;BME280;53177;52.648;1.214;2023-04-30T11:52:05;101686.72;;;17.83;55.89
66381;BME280;53177;52.648;1.214;2023-04-30T11:54:35;101680.75;;;17.99;56.70
66381;BME280;53177;52.648;1.214;2023-04-30T11:57:00;101682.97;;;18.33;56.08
66381;BME280;53177;52.648;1.214;2023-04-30T11:59:29;101677.19;;;17.99;53.72
66381;BME280;53177;52.648;1.214;2023-04-30T12:01:54;101666.91;;;17.64;54.83
66381;BME280;53177;52.648;1.214;2023-04-30T12:04:20;101674.56;;;17.97;55.13
66381;BME280;53177;52.648;1.214;2023-04-30T12:06:46;101669.56;;;17.88;54.86
66381;BME280;53177;52.648;1.214;2023-04-30T12:09:12;101659.00;;;18.30;53.18
66381;BME280;53177;52.648;1.214;2023-04-30T12:11:38;101655.09;;;18.39;54.39
66381;BME280;53177;52.648;1.214;2023-04-30T12:14:06;101656.41;;;18.51;51.44
66381;BME280;53177;52.648;1.214;2023-04-30T12:16:50;101661.19;;;18.42;53.01
66381;BME280;53177;52.648;1.214;2023-04-30T12:19:16;101663.09;;;18.17;52.71
66381;BME280;53177;52.648;1.214;2023-04-30T12:21:43;101668.13;;;18.03;53.86
66381;BME280;53177;52.648;1.214;2023-04-30T12:24:14;101663.34;;;17.88;54.73
66381;BME280;53177;52.648;1.214;2023-04-30T12:26:41;101663.41;;;18.10;53.98
66381;BME280;53177;52.648;1.214;2023-04-30T12:29:13;101663.69;;;18.02;54.71
66381;BME280;53177;52.648;1.214;2023-04-30T12:31:39;101664.13;;;17.67;53.78
66381;BME280;53177;52.648;1.214;2023-04-30T12:34:11;101655.47;;;17.83;59.37
66381;BME280;53177;52.648;1.214;2023-04-30T12:36:38;101655.66;;;17.54;52.92
66381;BME280;53177;52.648;1.214;2023-04-30T12:39:10;101653.38;;;17.43;54.97
66381;BME280;53177;52.648;1.214;2023-04-30T12:44:19;101643.59;;;17.67;54.90
66381;BME280;53177;52.648;1.214;2023-04-30T12:46:46;101647.69;;;18.00;56.24
66381;BME280;53177;52.648;1.214;2023-04-30T12:49:27;101651.69;;;18.12;55.61
66381;BME280;53177;52.648;1.214;2023-04-30T12:52:01;101649.47;;;18.23;54.89
66381;BME280;53177;52.648;1.214;2023-04-30T12:54:28;101643.75;;;18.32;54.26
66381;BME280;53177;52.648;1.214;2023-04-30T12:57:12;101638.31;;;18.57;56.23
66381;BME280;53177;52.648;1.214;2023-04-30T12:59:39;101631.13;;;18.36;52.11
66381;BME280;53177;52.648;1.214;2023-04-30T13:02:13;101632.75;;;18.62;57.78
66381;BME280;53177;52.648;1.214;2023-04-30T13:04:42;101640.09;;;18.78;53.12
66381;BME280;53177;52.648;1.214;2023-04-30T13:07:08;101639.41;;;18.52;52.25
66381;BME280;53177;52.648;1.214;2023-04-30T13:09:35;101635.81;;;18.53;53.16
66381;BME280;53177;52.648;1.214;2023-04-30T13:12:02;101628.81;;;18.70;53.45
66381;BME280;53177;52.648;1.214;2023-04-30T13:14:29;101625.31;;;18.90;51.13
66381;BME280;53177;52.648;1.214;2023-04-30T13:16:55;101625.84;;;18.98;52.39
66381;BME280;53177;52.648;1.214;2023-04-30T13:19:20;101632.75;;;19.04;52.62